Home   Weather   Germany   Hamburg   Past weeks
Flag for Germany

Past Weather in Hamburg, Hamburg, Germany — Yesterday and Last 2 Weeks

Currently: 68 °F. Passing clouds. (Weather station: Hamburg-Fuhlsbuettel, Germany). See more current weather

Past Weather in Hamburg — Graph

°F

Hamburg Temperature Yesterday

Maximum temperature yesterday: 77 °F (at 5:50 pm)
Minimum temperature yesterday: 52 °F (at 2:50 am)
Average temperature yesterday: 66 °F

High & Low Weather Summary for the Past Weeks

 TemperatureHumidityPressure
High88 °F (Jun 24, 1:20 pm)100% (Jun 19, 10:20 pm)30.21 "Hg (Jun 19, 10:20 pm)
Low45 °F (Jun 22, 4:20 am)29% (Jun 23, 5:50 pm)29.65 "Hg (Jun 24, 1:50 pm)
Average66 °F71%29.95 "Hg
* Reported Jun 18 6:20 am — Jul 3 6:50 am, Hamburg. Weather by CustomWeather, © 2022

Note: Actual official high and low records may vary slightly from our data, if they occured in-between our weather recording intervals... More about our weather records

Hamburg Weather History for the Previous 24 Hours

Scroll right to see more
 ConditionsComfort  
Time TempWeatherWind HumidityBarometerVisibility
6:50 am
Sun, Jul 3
66 °FSunny.9 mph60%30.01 "Hg10 mi
6:20 am66 °FSunny.9 mph56%30.01 "Hg10 mi
5:50 am66 °FSunny.10 mph56%30.01 "Hg10 mi
5:20 am66 °FSunny.8 mph56%30.01 "Hg10 mi
4:50 am66 °FClear.6 mph56%30.01 "Hg10 mi
4:20 am66 °FClear.7 mph56%30.01 "Hg10 mi
3:50 am66 °FClear.9 mph60%30.01 "Hg10 mi
3:20 am66 °FClear.9 mph60%30.04 "Hg10 mi
2:50 am66 °FClear.9 mph60%30.04 "Hg10 mi
1:20 am63 °FClear.7 mph77%30.07 "Hg10 mi
12:50 am63 °FClear.7 mph77%30.07 "Hg10 mi
12:20 am63 °FClear.5 mph77%30.07 "Hg10 mi
11:50 pm
Sat, Jul 2
64 °FClear.6 mph68%30.07 "Hg10 mi
11:20 pm64 °FClear.6 mph68%30.09 "Hg10 mi
10:50 pm66 °FClear.7 mph64%30.09 "Hg10 mi
10:20 pm66 °FClear.6 mph60%30.09 "Hg10 mi
9:50 pm68 °FSunny.6 mph56%30.09 "Hg10 mi
9:20 pm68 °FSunny.3 mph64%30.09 "Hg10 mi
8:50 pm70 °FPassing clouds.6 mph53%30.09 "HgN/A
8:20 pm73 °FSunny.5 mph44%30.09 "Hg10 mi
7:50 pm77 °FPassing clouds.6 mph36%30.09 "HgN/A
7:20 pm77 °FSunny.3 mph39%30.09 "Hg10 mi
6:50 pm77 °FPassing clouds.7 mph36%30.09 "HgN/A
6:20 pm77 °FSunny.5 mph36%30.12 "Hg10 mi
5:50 pm77 °FPassing clouds.7 mph39%30.12 "HgN/A
5:20 pm75 °FSunny.13 mph41%30.15 "Hg10 mi
4:50 pm73 °FPassing clouds.9 mph44%30.15 "HgN/A
4:20 pm73 °FPassing clouds.6 mph41%30.15 "HgN/A
3:20 pm73 °FSunny.9 mph44%30.15 "Hg10 mi
2:50 pm73 °FPassing clouds.12 mph41%30.18 "HgN/A
2:20 pm73 °FPassing clouds.10 mph41%30.18 "HgN/A
1:50 pm73 °FPassing clouds.14 mph41%30.18 "HgN/A
12:50 pm72 °FPassing clouds.12 mph47%30.18 "HgN/A
12:20 pm70 °FPassing clouds.12 mph46%30.18 "HgN/A
11:50 am70 °FPassing clouds.14 mph50%30.18 "HgN/A
11:20 am70 °FPassing clouds.14 mph53%30.18 "HgN/A
10:50 am68 °FPassing clouds.13 mph53%30.21 "HgN/A
10:20 am68 °FPassing clouds.12 mph56%30.18 "HgN/A
9:50 am68 °FPassing clouds.12 mph56%30.18 "HgN/A
8:50 am64 °FSunny.8 mph64%30.18 "Hg10 mi
8:20 am64 °FSunny.7 mph68%30.18 "Hg10 mi
Weather by CustomWeather, © 2022

See weather overview